Terminal Aerodrome Forecast
Issued by NWS Cleveland, OH

Home | Current Version | Previous Version | Graphics & Text | Print | Product List | Glossary On
Versions: 1 2 3 4 5 6 7 8 9 10 11 12 13 14 15 16 17 18 19 20 21
000
FTUS41 KCLE 220400 AAA
TAFCAK
TAF AMD
KCAK 220418Z 2204/2224 23008KT P6SM VCSH SCT060 OVC120
     FM220900 24008KT P6SM -SHRA BKN035 OVC050
      TEMPO 2209/2213 4SM -SHRA BKN012
     FM221300 27012KT 5SM -SHRA BR BKN008 OVC025
     FM221600 30014G20KT P6SM OVC012
     FM221800 32018G25KT P6SM BKN030=

USA.gov is the U.S. government's official web portal to all federal, state and local government web resources and services.